Time;durP1;ratioP1;P1;durP2;ratioP2;P2;SDS_P1;SDS_P2;PMS_P1;PMS_P2;Temp;Humidity;BMP_temperature;BMP_pressure;BME280_temperature;BME280_humidity;BME280_pressure;Samples;Min_cycle;Max_cycle;Signal;HPM_P1;HPM_P2
2023/02/04 00:02:10;;;;;;;26.98;5.25;;;6.30;99.90;;;-144.05;72.11;57056.97;5040074;28;20033;-79
2023/02/04 00:04:36;;;;;;;28.70;6.28;;;6.30;99.90;;;-144.05;72.07;57018.75;5039567;28;20022;-77
2023/02/04 00:07:02;;;;;;;30.38;4.57;;;6.20;99.90;;;-144.05;71.80;57033.63;5039784;28;20025;-77
2023/02/04 00:09:28;;;;;;;23.33;5.10;;;6.20;99.90;;;-144.05;72.24;57048.50;5039752;28;20030;-77
2023/02/04 00:11:54;;;;;;;34.42;5.55;;;6.20;99.90;;;-144.05;72.33;57018.75;5035606;28;20026;-77
2023/02/04 00:14:19;;;;;;;22.60;4.88;;;6.30;99.90;;;-144.05;71.70;57012.38;5035403;28;20468;-77
2023/02/04 00:16:45;;;;;;;28.73;5.30;;;6.30;99.90;;;-144.05;71.79;57016.63;5034795;28;20029;-80
2023/02/04 00:19:11;;;;;;;26.80;5.30;;;6.30;99.90;;;-144.05;71.97;57031.50;5017353;28;20465;-76
2023/02/04 00:21:37;;;;;;;27.15;6.15;;;6.30;99.90;;;-144.05;71.89;57046.38;5034199;28;20033;-77
2023/02/04 00:24:03;;;;;;;26.98;4.38;;;6.30;99.90;;;-144.05;71.95;57044.25;5034798;28;20025;-79
2023/02/04 00:26:28;;;;;;;18.67;4.28;;;6.30;99.90;;;-144.05;71.75;57018.75;5035031;28;20021;-77
2023/02/04 00:28:55;;;;;;;27.77;5.32;;;6.40;99.90;;;-144.05;71.85;57020.88;5016179;28;20033;-77
2023/02/04 00:31:20;;;;;;;37.65;10.35;;;6.30;99.90;;;-144.05;72.00;57044.25;5035067;28;20367;-78
2023/02/04 00:33:46;;;;;;;54.97;22.60;;;6.40;99.90;;;-144.05;71.65;57052.75;5035152;28;20224;-78
2023/02/04 00:36:12;;;;;;;80.85;34.08;;;6.30;99.90;;;-144.05;72.16;57042.13;5035329;28;20079;-78
2023/02/04 00:38:38;;;;;;;68.72;26.77;;;6.30;99.90;;;-144.05;72.21;57056.97;5034558;28;20029;-79
2023/02/04 00:41:05;;;;;;;46.45;16.58;;;6.30;99.90;;;-144.05;72.31;57027.25;5016947;28;20033;-78
2023/02/04 00:43:31;;;;;;;35.25;8.40;;;6.30;99.90;;;-144.05;72.57;57018.75;5034677;28;20087;-77
2023/02/04 00:45:57;;;;;;;28.52;5.43;;;6.30;99.90;;;-144.05;72.44;57059.09;5034715;28;20030;-76
2023/02/04 00:48:23;;;;;;;26.67;5.28;;;6.30;99.90;;;-144.05;72.45;57059.09;5032902;28;20033;-78
2023/02/04 00:50:49;;;;;;;29.88;5.72;;;6.30;99.90;;;-144.05;72.58;57056.97;5017204;28;20108;-78
2023/02/04 00:53:14;;;;;;;31.20;4.90;;;6.30;99.90;;;-144.05;72.74;57050.63;5034714;28;20076;-79
2023/02/04 00:55:40;;;;;;;31.20;4.82;;;6.30;99.90;;;-144.05;72.72;57031.50;5015569;28;20477;-78
2023/02/04 00:58:06;;;;;;;24.20;4.45;;;6.30;99.90;;;-144.05;72.56;57044.25;5033730;28;20025;-78
2023/02/04 01:00:32;;;;;;;27.20;5.18;;;6.30;99.90;;;-144.05;72.58;57040.00;5016278;28;20026;-77
2023/02/04 01:02:58;;;;;;;32.05;4.95;;;6.30;99.90;;;-144.05;72.83;57059.09;5034025;28;20037;-78
2023/02/04 01:05:24;;;;;;;38.80;6.43;;;6.30;99.90;;;-144.05;72.65;57050.63;5033710;28;20045;-78
2023/02/04 01:07:49;;;;;;;31.05;4.70;;;6.40;99.90;;;-144.05;72.66;57040.00;5034227;28;20061;-78
2023/02/04 01:10:16;;;;;;;29.75;5.07;;;6.40;99.90;;;-144.05;72.71;57044.25;5016417;28;20514;-77
2023/02/04 01:12:43;;;;;;;38.78;6.18;;;6.40;99.90;;;-144.05;72.55;57040.00;5016022;28;20021;-79
2023/02/04 01:15:09;;;;;;;31.55;5.15;;;6.30;99.90;;;-144.05;72.72;57048.50;5033949;28;20349;-78
2023/02/04 01:17:35;;;;;;;32.92;5.38;;;6.40;99.90;;;-144.05;73.01;57029.38;5016132;28;20041;-77
2023/02/04 01:20:01;;;;;;;35.58;6.72;;;6.30;99.90;;;-144.05;72.96;57056.97;5016099;28;20369;-78
2023/02/04 01:22:27;;;;;;;30.67;5.35;;;6.30;99.90;;;-144.05;73.33;57035.75;5034252;28;20064;-77
2023/02/04 01:24:53;;;;;;;33.50;6.50;;;6.30;99.90;;;-144.05;73.20;57018.75;5016226;28;20120;-77
2023/02/04 01:27:18;;;;;;;28.40;5.80;;;6.30;99.90;;;-144.05;73.52;57027.25;5016426;28;20033;-78
2023/02/04 01:29:44;;;;;;;23.10;5.32;;;6.30;99.90;;;-144.05;72.90;57044.25;5016256;28;20095;-77
2023/02/04 01:32:10;;;;;;;25.95;5.47;;;6.30;99.90;;;-144.05;73.25;57052.75;5015123;28;20444;-77
2023/02/04 01:34:36;;;;;;;31.27;5.72;;;6.20;99.90;;;-144.05;73.26;57052.75;5033666;28;20033;-77
2023/02/04 01:37:02;;;;;;;23.23;4.45;;;6.20;99.90;;;-144.05;73.23;57054.88;5032689;28;20056;-77
2023/02/04 01:39:28;;;;;;;26.98;5.63;;;6.30;99.90;;;-144.05;73.01;57018.75;5015148;28;20076;-78
2023/02/04 01:41:54;;;;;;;33.03;5.05;;;6.30;99.90;;;-144.05;72.98;57018.75;5034363;28;20061;-77
2023/02/04 01:44:20;;;;;;;30.73;5.32;;;6.30;99.90;;;-144.05;72.68;57040.00;5032822;28;20029;-76
2023/02/04 01:46:46;;;;;;;25.70;4.55;;;6.30;99.90;;;-144.05;72.91;57048.50;5016448;28;20029;-78
2023/02/04 01:49:12;;;;;;;29.00;5.85;;;6.30;99.90;;;-144.05;72.93;57020.88;5033441;28;20025;-78
2023/02/04 01:51:38;;;;;;;28.42;5.43;;;6.30;99.90;;;-144.05;72.91;57025.13;5033415;28;20033;-77
2023/02/04 01:54:10;;;;;;;33.20;5.43;;;6.30;99.90;;;-144.05;72.56;57027.25;5033921;28;20039;-77
2023/02/04 01:56:36;;;;;;;32.30;5.57;;;6.30;99.90;;;-144.05;72.37;57029.38;5026868;28;20029;-78
2023/02/04 01:59:16;;;;;;;35.13;6.65;;;6.40;99.90;;;-144.05;72.58;57046.38;5039795;28;20024;-77
2023/02/04 02:01:50;;;;;;;27.35;5.00;;;6.30;99.90;;;-144.05;72.86;57018.75;5033516;28;20060;-79
2023/02/04 02:04:27;;;;;;;28.58;4.47;;;6.30;99.90;;;-144.05;73.07;57050.63;5034106;28;20026;-79
2023/02/04 02:07:01;;;;;;;29.08;5.60;;;6.30;99.90;;;-144.05;73.17;57027.25;5050251;28;20086;-77
2023/02/04 02:09:30;;;;;;;32.63;5.00;;;6.20;99.90;;;-144.05;73.31;57033.63;5036168;28;20116;-77
2023/02/04 02:11:57;;;;;;;31.25;5.25;;;6.20;99.90;;;-144.05;73.42;57033.63;5032936;28;20059;-77
2023/02/04 02:14:23;;;;;;;25.55;5.45;;;6.20;99.90;;;-144.05;73.32;57035.75;5034861;28;20030;-77
2023/02/04 02:16:49;;;;;;;38.88;6.32;;;6.20;99.90;;;-144.05;72.96;57054.88;5032967;28;20025;-77
2023/02/04 02:19:35;;;;;;;32.08;6.20;;;6.30;99.90;;;-144.05;73.03;57050.63;5032999;28;20116;-78
2023/02/04 02:22:24;;;;;;;30.92;5.68;;;6.20;99.90;;;-144.05;72.87;57042.13;5032859;28;20112;-77
2023/02/04 02:24:50;;;;;;;36.30;5.50;;;6.30;99.90;;;-144.05;73.12;57044.25;5033155;28;20036;-77
2023/02/04 02:27:16;;;;;;;32.15;7.45;;;6.20;99.90;;;-144.05;72.99;57023.00;5014525;28;20033;-77
2023/02/04 02:29:43;;;;;;;29.58;5.70;;;6.20;99.90;;;-144.05;73.14;57042.13;5033129;28;20111;-77
2023/02/04 02:32:13;;;;;;;24.83;5.20;;;6.20;99.90;;;-144.05;73.20;57025.13;5030898;28;20036;-77
2023/02/04 02:34:40;;;;;;;28.08;5.90;;;6.30;99.90;;;-144.05;72.65;57048.50;5014984;28;20022;-77
2023/02/04 02:37:10;;;;;;;35.30;5.40;;;6.30;99.90;;;-144.05;73.19;57071.84;5032536;28;20489;-78
2023/02/04 02:39:41;;;;;;;32.03;5.10;;;6.20;99.90;;;-144.05;73.18;57027.25;5032339;28;20032;-77
2023/02/04 02:42:10;;;;;;;31.98;4.70;;;6.20;99.90;;;-144.05;72.95;57035.75;5033312;28;20474;-76
2023/02/04 02:44:36;;;;;;;34.95;5.25;;;6.20;99.90;;;-144.05;73.42;57048.50;5031362;28;20095;-76
2023/02/04 02:47:02;;;;;;;30.13;6.10;;;6.20;99.90;;;-144.05;73.67;57025.13;5031335;28;20408;-75
2023/02/04 02:49:33;;;;;;;27.45;5.15;;;6.20;99.90;;;-144.05;73.40;57023.00;5013437;28;20091;-75
2023/02/04 02:51:59;;;;;;;29.83;5.45;;;6.20;99.90;;;-144.05;73.49;57010.25;5031391;28;20022;-77
2023/02/04 02:54:30;;;;;;;32.72;4.53;;;6.20;99.90;;;-144.05;73.68;57044.25;5031805;28;20041;-75
2023/02/04 02:56:58;;;;;;;25.48;5.20;;;6.10;99.90;;;-144.05;73.90;57048.50;5032977;28;20029;-78
2023/02/04 02:59:26;;;;;;;32.05;7.35;;;6.10;99.90;;;-144.05;73.97;57035.75;5014644;28;20025;-78
2023/02/04 03:02:02;;;;;;;25.25;5.47;;;6.10;99.90;;;-144.05;73.93;57035.75;5033229;28;20403;-77
2023/02/04 03:04:36;;;;;;;33.42;6.25;;;6.10;99.90;;;-144.05;74.35;57044.25;5030952;28;20377;-76
2023/02/04 03:07:02;;;;;;;30.08;5.07;;;6.00;99.90;;;-144.05;74.02;57014.50;5032180;28;20108;-77
2023/02/04 03:09:29;;;;;;;26.70;5.55;;;6.00;99.90;;;-144.05;74.26;57065.47;5031619;28;20504;-77
2023/02/04 03:11:55;;;;;;;32.20;5.72;;;6.00;99.90;;;-144.05;74.73;57025.13;5032600;28;20040;-77
2023/02/04 03:14:24;;;;;;;32.95;5.05;;;6.00;99.90;;;-144.05;74.49;57044.25;5035773;28;20041;-78
2023/02/04 03:16:54;;;;;;;30.08;5.43;;;6.00;99.90;;;-144.05;74.68;57050.63;5037057;28;20025;-77
2023/02/04 03:19:24;;;;;;;37.67;5.55;;;6.00;99.90;;;-144.05;74.78;57006.00;5036181;28;20057;-77
2023/02/04 03:21:50;;;;;;;25.02;5.03;;;6.00;99.90;;;-144.05;74.68;57027.25;5037660;28;20021;-77
2023/02/04 03:24:17;;;;;;;33.65;5.75;;;5.90;99.90;;;-144.05;74.96;57035.75;5037400;28;20042;-77
2023/02/04 03:26:43;;;;;;;31.75;5.18;;;5.90;99.90;;;-144.05;75.18;57035.75;5019194;28;20022;-77
2023/02/04 03:29:09;;;;;;;29.55;5.70;;;5.90;99.90;;;-144.05;74.90;57029.38;5036636;28;20079;-78
2023/02/04 03:31:39;;;;;;;24.58;4.70;;;6.00;99.90;;;-144.05;74.73;57042.13;5035484;28;20037;-78
2023/02/04 03:34:05;;;;;;;33.05;6.70;;;6.00;99.90;;;-144.05;74.74;57035.75;5035457;28;20060;-78
2023/02/04 03:36:31;;;;;;;32.67;6.93;;;6.00;99.90;;;-144.05;74.96;57050.63;5035853;28;20033;-77
2023/02/04 03:38:57;;;;;;;28.00;4.78;;;6.10;99.90;;;-144.05;74.59;57061.22;5035299;28;20033;-78
2023/02/04 03:41:23;;;;;;;27.45;4.28;;;6.10;99.90;;;-144.05;74.42;57029.38;5019537;28;20029;-77
2023/02/04 03:43:49;;;;;;;23.05;5.55;;;6.10;99.90;;;-144.05;74.56;57052.75;5035495;28;20057;-76
2023/02/04 03:46:15;;;;;;;35.05;5.65;;;6.10;99.90;;;-144.05;74.76;57056.97;5035572;28;20048;-79
2023/02/04 03:48:41;;;;;;;30.80;4.28;;;6.00;99.90;;;-144.05;74.77;57040.00;5035366;28;20033;-76
2023/02/04 03:51:07;;;;;;;21.33;4.65;;;6.00;99.90;;;-144.05;75.20;57044.25;5035088;28;20090;-77
2023/02/04 03:53:33;;;;;;;32.65;6.10;;;6.00;99.90;;;-144.05;75.13;57046.38;5035093;28;20032;-75
2023/02/04 03:55:59;;;;;;;36.55;5.30;;;5.90;99.90;;;-144.05;75.28;57048.50;5035299;28;20436;-75
2023/02/04 03:58:25;;;;;;;29.08;5.97;;;5.90;99.90;;;-144.05;75.05;57044.25;5035243;28;20481;-79
2023/02/04 04:00:51;;;;;;;28.17;5.65;;;5.90;99.90;;;-144.05;75.21;57014.50;5034300;28;20041;-76
2023/02/04 04:03:16;;;;;;;22.83;4.53;;;5.90;99.90;;;-144.05;75.48;57031.50;5016692;28;20030;-76
2023/02/04 04:05:42;;;;;;;30.92;4.65;;;6.00;99.90;;;-144.05;75.33;57040.00;5034662;28;20030;-79
2023/02/04 04:08:08;;;;;;;35.67;5.55;;;6.00;99.90;;;-144.05;75.03;57035.75;5016632;28;20041;-76
2023/02/04 04:10:34;;;;;;;31.85;5.30;;;6.00;99.90;;;-144.05;75.07;57040.00;5034289;28;20068;-76
2023/02/04 04:13:00;;;;;;;25.13;5.30;;;6.00;99.90;;;-144.05;75.14;57048.50;5034933;28;20434;-77
2023/02/04 04:15:26;;;;;;;26.77;4.20;;;6.00;99.90;;;-144.05;75.09;57027.25;5017248;28;20034;-76
2023/02/04 04:17:51;;;;;;;25.92;4.65;;;6.00;99.90;;;-144.05;74.90;57056.97;5035260;28;20017;-76
2023/02/04 04:20:18;;;;;;;34.55;5.93;;;6.00;99.90;;;-144.05;75.18;57040.00;5035095;28;20041;-76
2023/02/04 04:22:44;;;;;;;30.23;5.57;;;6.00;99.90;;;-144.05;75.54;57014.50;5017026;28;20095;-76
2023/02/04 04:25:10;;;;;;;30.65;5.60;;;6.00;99.90;;;-144.05;75.05;57031.50;5035252;28;20036;-77
2023/02/04 04:27:36;;;;;;;40.67;5.35;;;6.00;99.90;;;-144.05;75.26;57082.47;5017363;28;20116;-78
2023/02/04 04:30:03;;;;;;;30.48;5.50;;;6.00;99.90;;;-144.05;75.34;57029.38;5035212;28;20109;-77
2023/02/04 04:32:29;;;;;;;29.65;5.30;;;6.00;99.90;;;-144.05;75.23;57050.63;5035681;28;20040;-77
2023/02/04 04:34:55;;;;;;;30.63;4.82;;;6.00;99.90;;;-144.05;75.29;57029.38;5036157;28;20136;-77
2023/02/04 04:37:20;;;;;;;32.13;5.85;;;5.90;99.90;;;-144.05;75.53;57044.25;5035377;28;20124;-76
2023/02/04 04:39:46;;;;;;;28.60;5.07;;;5.90;99.90;;;-144.05;75.86;57016.63;5017193;28;20346;-77
2023/02/04 04:42:12;;;;;;;30.73;4.55;;;5.90;99.90;;;-144.05;75.90;57031.50;5017352;28;20041;-76
2023/02/04 04:44:38;;;;;;;32.83;5.97;;;5.80;99.90;;;-144.05;76.05;57054.88;5034576;28;20064;-77
2023/02/04 04:47:04;;;;;;;21.58;4.30;;;5.80;99.90;;;-144.05;76.26;57046.38;5033624;28;20125;-75
2023/02/04 04:49:29;;;;;;;24.80;4.18;;;5.70;99.90;;;-144.05;76.39;57029.38;5034268;28;20053;-76
2023/02/04 04:51:55;;;;;;;24.15;4.30;;;5.70;99.90;;;-144.05;76.41;57044.25;5016992;28;20072;-78
2023/02/04 04:54:21;;;;;;;25.88;5.07;;;5.70;99.90;;;-144.05;76.57;57035.75;5035156;28;20025;-77
2023/02/04 04:56:47;;;;;;;27.35;6.43;;;5.60;99.90;;;-144.05;76.76;57027.25;5034919;28;20473;-78
2023/02/04 04:59:13;;;;;;;29.88;4.75;;;5.60;99.90;;;-144.05;76.93;57027.25;5034409;28;20040;-76
2023/02/04 05:01:39;;;;;;;24.38;4.63;;;5.60;99.90;;;-144.05;76.84;57029.38;5034167;28;20488;-76
2023/02/04 05:04:04;;;;;;;28.38;4.93;;;5.60;99.90;;;-144.05;77.01;57071.84;5016273;28;20029;-78
2023/02/04 05:06:30;;;;;;;35.33;6.00;;;5.60;99.90;;;-144.05;77.29;57040.00;5031595;28;20036;-77
2023/02/04 05:08:56;;;;;;;32.15;5.38;;;5.50;99.90;;;-144.05;77.49;57059.09;5044436;28;20036;-77
2023/02/04 05:11:22;;;;;;;30.13;5.35;;;5.60;99.90;;;-144.05;77.21;57025.13;5017473;28;20021;-78
2023/02/04 05:13:48;;;;;;;31.58;5.53;;;5.70;99.90;;;-144.05;77.38;57046.38;5035050;28;20029;-78
2023/02/04 05:16:14;;;;;;;34.00;5.82;;;5.70;99.90;;;-144.05;77.20;57046.38;5017121;28;20088;-78
2023/02/04 05:18:40;;;;;;;28.73;4.70;;;5.70;99.90;;;-144.05;77.03;57033.63;5034474;28;20024;-76
2023/02/04 05:21:07;;;;;;;32.90;4.72;;;5.70;99.90;;;-144.05;77.24;57048.50;5017028;28;20136;-76
2023/02/04 05:23:33;;;;;;;38.70;5.53;;;5.70;99.90;;;-144.05;77.19;57029.38;5016419;28;20481;-76
2023/02/04 05:25:59;;;;;;;32.47;5.85;;;5.80;99.90;;;-144.05;76.96;57031.50;5034270;28;20148;-76
2023/02/04 05:28:25;;;;;;;30.63;4.95;;;5.80;99.90;;;-144.05;76.97;57042.13;5033494;28;20064;-77
2023/02/04 05:30:51;;;;;;;36.70;6.57;;;5.80;99.90;;;-144.05;76.58;57023.00;5033735;28;20041;-76
2023/02/04 05:33:17;;;;;;;25.35;4.80;;;5.90;99.90;;;-144.05;76.89;57018.75;5015595;28;20033;-76
2023/02/04 05:35:43;;;;;;;24.13;4.68;;;5.90;99.90;;;-144.05;76.67;57061.22;5032886;28;20044;-77
2023/02/04 05:38:09;;;;;;;31.73;4.97;;;5.90;99.90;;;-144.05;76.84;57046.38;5033427;28;20033;-77
2023/02/04 05:40:35;;;;;;;28.67;5.60;;;5.90;99.90;;;-144.05;76.94;57029.38;5034602;28;20033;-76
2023/02/04 05:43:01;;;;;;;29.77;4.70;;;5.90;99.90;;;-144.05;76.61;57020.88;5033688;28;20034;-76
2023/02/04 05:45:26;;;;;;;30.48;6.30;;;5.90;99.90;;;-144.05;76.79;57033.63;5016277;28;20037;-77
2023/02/04 05:47:52;;;;;;;20.83;4.65;;;6.00;99.90;;;-144.05;76.34;57044.25;5015891;28;20045;-77
2023/02/04 05:50:18;;;;;;;25.40;4.60;;;5.90;99.90;;;-144.05;76.69;57033.63;5034583;28;20064;-78
2023/02/04 05:52:44;;;;;;;41.63;5.13;;;5.90;99.90;;;-144.05;76.76;57044.25;5034742;28;20084;-77
2023/02/04 05:55:11;;;;;;;46.88;6.38;;;5.90;99.90;;;-144.05;76.86;57040.00;5034591;28;20036;-77
2023/02/04 05:57:40;;;;;;;32.28;5.53;;;5.90;99.90;;;-144.05;76.96;57025.13;5015961;28;20115;-75
2023/02/04 06:00:09;;;;;;;31.48;4.88;;;5.90;99.90;;;-144.05;77.11;57033.63;5033516;28;20032;-76
2023/02/04 06:02:35;;;;;;;23.70;4.90;;;5.90;99.90;;;-144.05;76.96;57042.13;5033500;28;20567;-78
2023/02/04 06:05:00;;;;;;;24.70;5.13;;;5.90;99.90;;;-144.05;77.19;57050.63;5033336;28;20072;-78
2023/02/04 06:07:26;;;;;;;27.50;4.25;;;5.80;99.90;;;-144.05;77.11;57065.47;5033049;28;20061;-78
2023/02/04 06:09:52;;;;;;;27.98;5.13;;;5.80;99.90;;;-144.05;77.46;57054.88;5032904;28;20059;-74
2023/02/04 06:12:18;;;;;;;29.50;4.78;;;5.80;99.90;;;-144.05;77.58;57029.38;5032510;28;20026;-76
2023/02/04 06:14:44;;;;;;;32.15;5.35;;;5.80;99.90;;;-144.05;77.56;57033.63;5014971;28;20128;-77
2023/02/04 06:17:09;;;;;;;42.63;5.15;;;5.80;99.90;;;-144.05;77.81;57046.38;5033204;28;20026;-76
2023/02/04 06:19:35;;;;;;;27.77;4.53;;;5.80;99.90;;;-144.05;77.65;57008.13;5032646;28;20036;-75
2023/02/04 06:22:01;;;;;;;33.45;5.85;;;5.80;99.90;;;-144.05;77.65;57040.00;5032834;28;20029;-75
2023/02/04 06:24:27;;;;;;;31.27;5.28;;;5.80;99.90;;;-144.05;77.74;57025.13;5032923;28;20065;-76
2023/02/04 06:26:53;;;;;;;30.58;5.18;;;5.80;99.90;;;-144.05;77.74;57035.75;5032733;28;20035;-76
2023/02/04 06:29:18;;;;;;;38.47;5.45;;;5.80;99.90;;;-144.05;77.63;57029.38;5034618;28;20032;-77
2023/02/04 06:31:45;;;;;;;26.40;4.75;;;5.80;99.90;;;-144.05;77.51;57035.75;5032677;28;20484;-76
2023/02/04 06:34:11;;;;;;;37.17;6.03;;;5.80;99.90;;;-144.05;77.38;57042.13;5015017;28;20452;-76
2023/02/04 06:36:37;;;;;;;22.33;4.63;;;5.90;99.90;;;-144.05;77.41;57048.50;5032409;28;20104;-76
2023/02/04 06:39:04;;;;;;;20.95;5.47;;;5.90;99.90;;;-144.05;77.37;57048.50;5014396;28;20127;-77
2023/02/04 06:41:29;;;;;;;33.63;6.10;;;5.90;99.90;;;-144.05;77.44;57033.63;5014357;28;20088;-77
2023/02/04 06:43:55;;;;;;;28.83;5.80;;;5.80;99.90;;;-144.05;77.53;57061.22;5032474;28;20439;-76
2023/02/04 06:46:21;;;;;;;29.25;5.20;;;5.80;99.90;;;-144.05;77.57;57052.75;5014173;28;20026;-78
2023/02/04 06:48:47;;;;;;;26.55;4.72;;;5.80;99.90;;;-144.05;77.72;57012.38;5031929;28;20022;-76
2023/02/04 06:51:13;;;;;;;21.67;3.80;;;5.80;99.90;;;-144.05;77.74;57029.38;5032560;28;20064;-76
2023/02/04 06:53:39;;;;;;;32.53;5.22;;;5.70;99.90;;;-144.05;77.91;57052.75;5032689;28;20481;-75
2023/02/04 06:56:05;;;;;;;29.83;5.28;;;5.70;99.90;;;-144.05;77.88;57035.75;5014994;28;20113;-76
2023/02/04 06:58:31;;;;;;;35.10;10.40;;;5.70;99.90;;;-144.05;78.11;57040.00;5032567;28;20469;-76
2023/02/04 07:00:57;;;;;;;49.13;15.48;;;5.70;99.90;;;-144.05;78.19;57059.09;5014824;28;20025;-78
2023/02/04 07:03:23;;;;;;;41.83;14.18;;;5.60;99.90;;;-144.05;78.11;57014.50;5014909;28;20068;-75
2023/02/04 07:05:50;;;;;;;81.60;30.33;;;5.60;99.90;;;-144.05;78.27;57052.75;5014809;28;20049;-75
2023/02/04 07:08:15;;;;;;;69.78;25.35;;;5.60;99.90;;;-144.05;78.55;57052.75;5032250;28;20061;-77
2023/02/04 07:10:41;;;;;;;108.53;41.67;;;5.60;99.90;;;-144.05;78.61;57027.25;5032715;28;20048;-76
2023/02/04 07:13:07;;;;;;;94.47;36.72;;;5.60;99.90;;;-144.05;78.62;57023.00;5032617;28;20474;-76
2023/02/04 07:15:33;;;;;;;80.88;31.08;;;5.60;99.90;;;-144.05;78.35;57046.38;5014722;28;20048;-78
2023/02/04 07:17:59;;;;;;;49.20;13.88;;;5.60;99.90;;;-144.05;78.67;57029.38;5032047;28;20083;-77
2023/02/04 07:20:26;;;;;;;45.53;12.60;;;5.60;99.90;;;-144.05;78.58;57059.09;5014840;28;20025;-76
2023/02/04 07:22:51;;;;;;;84.05;30.65;;;5.60;99.90;;;-144.05;78.58;57065.47;5032607;28;20040;-76
2023/02/04 07:25:17;;;;;;;47.15;13.88;;;5.70;99.90;;;-144.05;78.83;57027.25;5032389;28;20423;-75
2023/02/04 07:27:43;;;;;;;56.60;17.05;;;5.70;99.90;;;-144.05;78.79;57031.50;5014670;28;20396;-77
2023/02/04 07:30:10;;;;;;;35.58;7.93;;;5.70;99.90;;;-144.05;78.77;57059.09;5014846;28;20030;-77
2023/02/04 07:32:36;;;;;;;33.40;8.48;;;5.70;99.90;;;-144.05;78.97;57065.47;5046460;28;20040;-77
2023/02/04 07:35:02;;;;;;;20.95;5.88;;;5.70;99.90;;;-144.05;78.98;57050.63;5042544;28;20338;-77
2023/02/04 07:37:29;;;;;;;26.95;4.63;;;5.80;99.90;;;-144.05;79.10;57020.88;5032017;28;20470;-78
2023/02/04 07:39:54;;;;;;;25.75;8.63;;;5.80;99.90;;;-144.05;79.14;57025.13;5014086;28;20030;-77
2023/02/04 07:42:20;;;;;;;24.75;6.80;;;5.80;99.90;;;-144.05;79.05;57044.25;5014788;28;20489;-76
2023/02/04 07:44:46;;;;;;;25.83;6.93;;;5.90;99.90;;;-144.05;78.85;57020.88;5032968;28;20052;-76
2023/02/04 07:47:12;;;;;;;31.95;8.23;;;5.90;99.90;;;-144.05;78.70;57023.00;5033448;28;20037;-75
2023/02/04 07:49:38;;;;;;;36.65;8.35;;;6.00;99.90;;;-144.05;78.67;57035.75;5032207;28;20392;-77
2023/02/04 07:52:04;;;;;;;36.40;9.95;;;6.00;99.90;;;-144.05;78.41;57029.38;5014340;28;20037;-76
2023/02/04 07:54:30;;;;;;;31.50;7.25;;;6.00;99.90;;;-144.05;78.46;57040.00;5016130;28;20075;-77
2023/02/04 07:56:56;;;;;;;23.55;6.32;;;6.00;99.90;;;-144.05;78.43;57027.25;5033417;28;20030;-77
2023/02/04 07:59:22;;;;;;;25.85;5.95;;;6.10;99.90;;;-144.05;78.26;57052.75;5038234;28;20474;-77
2023/02/04 08:01:48;;;;;;;13.73;4.53;;;6.10;99.90;;;-144.05;78.11;57018.75;5037647;28;20049;-75
2023/02/04 08:04:14;;;;;;;28.67;5.18;;;6.20;99.90;;;-144.05;78.15;57008.13;5038536;28;20366;-78
2023/02/04 08:06:40;;;;;;;24.88;4.78;;;6.20;99.90;;;-144.05;78.23;57031.50;5037754;28;20025;-77
2023/02/04 08:09:06;;;;;;;28.13;6.75;;;6.30;99.90;;;-144.05;77.26;57008.13;5038758;28;20059;-76
2023/02/04 08:11:32;;;;;;;31.02;5.57;;;6.40;99.90;;;-144.05;76.92;57044.25;5037383;28;20041;-76
2023/02/04 08:13:58;;;;;;;30.30;5.30;;;6.40;99.90;;;-144.05;76.81;57018.75;5036943;28;20025;-74
2023/02/04 08:16:24;;;;;;;31.42;5.47;;;6.40;99.90;;;-144.05;76.53;57029.38;5036989;28;20083;-76
2023/02/04 08:18:50;;;;;;;31.85;6.80;;;6.50;99.90;;;-144.05;76.14;57016.63;5037339;28;20389;-76
2023/02/04 08:21:15;;;;;;;37.40;6.18;;;6.50;99.90;;;-144.05;76.37;57059.09;5039477;28;20026;-75
2023/02/04 08:23:41;;;;;;;28.85;5.95;;;6.60;99.90;;;-144.05;75.85;57006.00;5019241;28;20037;-75
2023/02/04 08:26:10;;;;;;;32.20;6.65;;;6.60;99.90;;;-144.05;75.75;57023.00;5039547;28;20083;-77
2023/02/04 08:28:37;;;;;;;28.80;5.55;;;6.60;99.90;;;-144.05;75.23;57010.25;5039203;28;20412;-76
2023/02/04 08:31:10;;;;;;;23.65;5.05;;;6.70;99.90;;;-144.05;75.48;57012.38;5038571;28;20108;-76
2023/02/04 08:33:38;;;;;;;45.55;7.85;;;6.80;99.90;;;-144.05;74.94;57010.25;5036542;28;20496;-76
2023/02/04 08:36:08;;;;;;;42.25;6.95;;;6.80;99.90;;;-144.05;74.95;57029.38;5036621;28;20036;-76
2023/02/04 08:38:34;;;;;;;33.40;5.20;;;6.80;99.90;;;-144.05;75.01;57023.00;5036747;28;20026;-76
2023/02/04 08:41:00;;;;;;;29.05;4.55;;;6.80;99.90;;;-144.05;74.77;57042.13;5036791;28;20099;-76
2023/02/04 08:43:26;;;;;;;31.13;5.05;;;6.80;99.90;;;-144.05;75.01;57020.88;5019804;28;20376;-77
2023/02/04 08:45:52;;;;;;;33.13;6.07;;;6.80;99.90;;;-144.05;74.91;57040.00;5038850;28;20033;-77
2023/02/04 08:48:18;;;;;;;35.35;6.95;;;6.80;99.90;;;-144.05;74.76;57003.88;5038107;28;20424;-80
2023/02/04 08:50:44;;;;;;;30.50;5.63;;;6.90;99.90;;;-144.05;74.31;57006.00;5037754;28;20370;-77
2023/02/04 08:53:10;;;;;;;31.40;5.68;;;6.90;99.90;;;-144.05;74.56;57018.75;5018678;28;20028;-79
2023/02/04 08:55:36;;;;;;;24.60;5.07;;;7.00;99.90;;;-144.05;74.33;57016.63;5036034;28;20485;-77
2023/02/04 08:58:01;;;;;;;32.83;6.82;;;7.10;99.90;;;-144.05;74.12;57027.25;5018854;28;20468;-77
2023/02/04 09:00:27;;;;;;;40.53;6.30;;;7.20;99.90;;;-144.05;73.66;57008.13;5037757;28;20033;-77
2023/02/04 09:02:53;;;;;;;38.78;7.30;;;7.20;99.90;;;-144.05;73.58;57025.13;5037711;28;20511;-77
2023/02/04 09:05:19;;;;;;;33.28;7.03;;;7.20;99.90;;;-144.05;73.10;57042.13;5035826;28;20029;-75
2023/02/04 09:07:45;;;;;;;33.80;6.55;;;7.40;99.90;;;-144.05;72.50;57025.13;5018921;28;20443;-78
2023/02/04 09:10:11;;;;;;;27.02;6.18;;;7.40;99.90;;;-144.05;72.49;57048.50;5019368;28;20087;-78
2023/02/04 09:12:37;;;;;;;30.35;4.93;;;7.50;99.90;;;-144.05;72.19;57010.25;5037479;28;20084;-77
2023/02/04 09:15:04;;;;;;;32.58;5.68;;;7.60;99.90;;;-144.05;71.18;57023.00;5018588;28;20043;-76
2023/02/04 09:17:30;;;;;;;36.42;6.60;;;7.60;99.90;;;-144.05;71.08;57006.00;5035732;28;20031;-78
2023/02/04 09:19:55;;;;;;;28.58;6.75;;;7.70;99.90;;;-144.05;70.76;56984.78;5038990;28;20488;-77
2023/02/04 09:22:21;;;;;;;24.02;4.60;;;7.80;99.90;;;-144.05;70.66;57020.88;5037621;28;20038;-77
2023/02/04 09:24:47;;;;;;;32.75;6.20;;;7.80;99.90;;;-144.05;70.92;57014.50;5036470;28;20057;-76
2023/02/04 09:27:13;;;;;;;39.10;6.57;;;7.80;99.90;;;-144.05;69.80;57001.75;5019460;28;20052;-78
2023/02/04 09:29:39;;;;;;;39.08;12.13;;;7.80;99.90;;;-144.05;69.75;57020.88;5036649;28;20436;-78
2023/02/04 09:32:05;;;;;;;34.33;7.30;;;7.80;99.90;;;-144.05;69.80;57008.13;5018669;28;20100;-78
2023/02/04 09:34:31;;;;;;;38.03;6.85;;;7.80;99.90;;;-144.05;69.59;56999.63;5018707;28;20029;-77
2023/02/04 09:36:57;;;;;;;38.25;6.55;;;7.90;99.90;;;-144.05;69.12;57001.75;5018542;28;20195;-78
2023/02/04 09:39:23;;;;;;;33.00;7.60;;;8.00;99.90;;;-144.05;68.86;57016.63;5018304;28;20036;-76
2023/02/04 09:41:53;;;;;;;31.02;6.32;;;8.10;99.90;;;-144.05;68.81;57018.75;5038239;28;20021;-77
2023/02/04 09:44:25;;;;;;;46.95;11.98;;;8.20;99.90;;;-144.05;68.54;56980.53;5035425;28;20030;-78
2023/02/04 09:46:58;;;;;;;41.40;10.85;;;8.30;99.90;;;-144.05;68.12;57001.75;5017367;28;20021;-77
2023/02/04 09:49:26;;;;;;;34.45;8.25;;;8.30;99.90;;;-144.05;66.92;56991.13;5036941;28;20113;-79
2023/02/04 09:51:54;;;;;;;38.45;7.05;;;8.40;99.90;;;-144.05;67.15;57001.75;5035493;28;20204;-78
2023/02/04 09:54:23;;;;;;;36.75;8.18;;;8.50;99.90;;;-144.05;66.74;56980.53;5034806;28;20547;-77
2023/02/04 09:56:52;;;;;;;38.47;9.13;;;8.70;99.90;;;-144.05;65.53;57023.00;5016503;28;20346;-77
2023/02/04 09:59:26;;;;;;;40.67;8.07;;;8.90;99.90;;;-144.05;65.12;57008.13;5050310;28;20022;-76
2023/02/04 10:02:01;;;;;;;39.28;10.15;;;9.10;99.90;;;-144.05;64.08;56978.41;5020831;28;20075;-77
2023/02/04 10:04:28;;;;;;;50.80;11.10;;;9.20;99.90;;;-144.05;63.29;56989.00;5034646;28;20037;-76